Time;durP1;ratioP1;P1;durP2;ratioP2;P2;SDS_P1;SDS_P2;PMS_P1;PMS_P2;Temp;Humidity;BMP_temperature;BMP_pressure;BME280_temperature;BME280_humidity;BME280_pressure;Samples;Min_cycle;Max_cycle;Signal;HPM_P1;HPM_P2
2022/08/01 00:02:12;;;;;;;14.52;6.00;;;;;;;23.82;33.92;99550.69;5055876;28;20517;-68
2022/08/01 00:04:38;;;;;;;10.48;5.68;;;;;;;23.85;33.99;99550.19;5089055;28;20055;-71
2022/08/01 00:07:04;;;;;;;11.00;6.05;;;;;;;23.75;33.78;99526.44;5089075;28;20117;-68
2022/08/01 00:09:30;;;;;;;8.75;5.75;;;;;;;23.79;33.96;99543.03;5055641;28;20123;-68
2022/08/01 00:11:56;;;;;;;7.78;5.32;;;;;;;23.71;34.13;99521.75;5072549;28;20130;-68
2022/08/01 00:14:22;;;;;;;12.38;5.90;;;;;;;23.78;33.87;99535.97;5041130;28;20043;-68
2022/08/01 00:16:48;;;;;;;21.52;6.50;;;;;;;23.81;34.18;99540.88;5059299;28;20448;-68
2022/08/01 00:19:13;;;;;;;13.05;6.03;;;;;;;23.66;33.92;99533.34;5093126;28;20048;-69
2022/08/01 00:21:39;;;;;;;12.45;5.65;;;;;;;23.76;34.02;99544.34;5094187;28;20415;-71
2022/08/01 00:24:05;;;;;;;10.93;5.50;;;;;;;23.76;34.37;99540.78;5092777;28;20046;-68
2022/08/01 00:26:30;;;;;;;10.88;5.68;;;;;;;23.79;34.08;99543.84;5092671;28;20044;-68
2022/08/01 00:28:56;;;;;;;11.77;5.78;;;;;;;23.70;34.59;99542.63;5059012;28;20147;-68
2022/08/01 00:31:22;;;;;;;18.17;5.95;;;;;;;23.69;34.37;99545.56;5075808;28;20047;-68
2022/08/01 00:33:48;;;;;;;15.32;6.45;;;;;;;23.47;34.87;99526.47;5042864;28;20131;-68
2022/08/01 00:36:14;;;;;;;13.75;6.55;;;;;;;23.46;34.94;99532.13;5058821;28;20142;-68
2022/08/01 00:38:39;;;;;;;14.15;6.40;;;;;;;23.50;34.88;99536.81;5059437;28;20412;-69
2022/08/01 00:41:05;;;;;;;12.43;6.28;;;;;;;23.53;34.89;99541.75;5092750;28;20043;-67
2022/08/01 00:43:31;;;;;;;11.40;6.13;;;;;;;23.54;34.86;99531.75;5092205;28;20056;-68
2022/08/01 00:45:57;;;;;;;13.60;5.70;;;;;;;23.33;34.34;99511.56;5092379;28;20047;-68
2022/08/01 00:48:22;;;;;;;12.40;5.10;;;;;;;23.35;34.69;99525.72;5042183;28;20122;-68
2022/08/01 00:50:49;;;;;;;10.70;4.72;;;;;;;23.32;34.31;99525.38;5058647;28;20101;-68
2022/08/01 00:53:14;;;;;;;10.85;4.53;;;;;;;23.40;34.41;99543.94;5092214;28;20047;-69
2022/08/01 00:55:40;;;;;;;11.57;4.38;;;;;;;23.41;34.07;99537.47;5092459;28;20301;-69
2022/08/01 00:58:06;;;;;;;5.82;3.60;;;;;;;23.40;33.63;99549.38;5042109;28;20074;-68
2022/08/01 01:00:33;;;;;;;10.20;4.60;;;;;;;23.44;34.02;99537.81;5058425;28;20177;-68
2022/08/01 01:02:59;;;;;;;13.30;4.30;;;;;;;23.40;34.16;99544.78;5058483;28;20538;-69
2022/08/01 01:05:25;;;;;;;7.72;4.43;;;;;;;23.42;34.28;99542.63;5041836;28;20040;-68
2022/08/01 01:07:57;;;;;;;11.45;4.93;;;;;;;23.54;34.40;99543.41;5091958;28;20052;-68
2022/08/01 01:10:35;;;;;;;11.15;4.95;;;;;;;23.39;34.50;99509.78;5058193;28;20044;-68
2022/08/01 01:13:10;;;;;;;10.02;4.68;;;;;;;23.61;34.58;99537.81;5093180;28;20096;-67
2022/08/01 01:15:41;;;;;;;8.18;4.50;;;;;;;23.57;34.35;99547.53;5091377;28;20394;-68
2022/08/01 01:18:12;;;;;;;12.18;4.65;;;;;;;23.44;34.22;99532.38;5091658;28;20036;-70
2022/08/01 01:20:43;;;;;;;10.18;4.80;;;;;;;23.56;34.44;99537.72;5091972;28;20047;-69
2022/08/01 01:23:27;;;;;;;;;;;;;;;23.72;34.04;99539.66;5092452;28;20044;-68
2022/08/01 01:26:04;;;;;;;13.93;4.78;;;;;;;23.40;34.35;99508.72;5073282;28;19975;-68
2022/08/01 01:28:35;;;;;;;17.67;4.75;;;;;;;23.40;34.70;99530.41;5091541;28;20116;-68
2022/08/01 01:31:02;;;;;;;20.25;5.35;;;;;;;23.44;34.76;99548.66;5057838;28;20036;-67
2022/08/01 01:33:31;;;;;;;21.92;5.63;;;;;;;23.40;34.94;99539.38;5074703;28;20449;-67
2022/08/01 01:36:04;;;;;;;28.85;6.25;;;;;;;23.38;34.92;99540.66;5075152;28;20048;-68
2022/08/01 01:38:34;;;;;;;25.70;5.72;;;;;;;23.26;35.21;99510.91;5073785;28;20523;-69
2022/08/01 01:41:01;;;;;;;24.50;5.80;;;;;;;23.28;35.19;99538.56;5055627;28;20032;-68
2022/08/01 01:43:28;;;;;;;32.38;6.50;;;;;;;23.14;35.53;99538.00;5055475;28;20044;-68
2022/08/01 01:45:54;;;;;;;22.30;5.90;;;;;;;23.07;35.30;99514.84;5038646;28;20051;-68
2022/08/01 01:48:20;;;;;;;11.05;4.82;;;;;;;23.26;35.30;99540.72;5055471;28;20063;-68
2022/08/01 01:50:49;;;;;;;11.55;5.10;;;;;;;23.35;35.53;99549.28;5088879;28;20044;-67
2022/08/01 01:53:18;;;;;;;11.40;4.97;;;;;;;23.21;35.35;99541.41;5088936;28;20039;-68
2022/08/01 01:55:48;;;;;;;8.05;4.88;;;;;;;23.22;35.51;99534.91;5090788;28;20137;-67
2022/08/01 01:58:15;;;;;;;16.73;5.50;;;;;;;23.05;35.83;99528.63;5091390;28;20079;-68
2022/08/01 02:00:42;;;;;;;8.52;4.95;;;;;;;23.23;35.68;99538.47;5074083;28;20044;-68
2022/08/01 02:03:10;;;;;;;10.23;5.63;;;;;;;23.21;35.63;99538.72;5073681;28;20044;-68
2022/08/01 02:05:36;;;;;;;16.40;5.60;;;;;;;23.13;35.93;99541.78;5073935;28;20044;-69
2022/08/01 02:08:04;;;;;;;12.20;5.75;;;;;;;23.21;35.80;99549.53;5057425;28;20417;-69
2022/08/01 02:10:31;;;;;;;13.73;5.50;;;;;;;23.19;35.94;99540.00;5074316;28;20061;-67
2022/08/01 02:12:59;;;;;;;20.75;6.18;;;;;;;22.96;36.08;99543.63;5090870;28;20044;-68
2022/08/01 02:15:26;;;;;;;16.02;5.70;;;;;;;23.05;36.26;99544.03;5091853;28;20138;-67
2022/08/01 02:17:53;;;;;;;14.07;6.32;;;;;;;22.92;36.19;99528.91;5073468;28;20039;-68
2022/08/01 02:20:19;;;;;;;16.67;6.10;;;;;;;22.84;36.52;99545.53;5073942;28;20040;-68
2022/08/01 02:22:57;;;;;;;15.15;5.75;;;;;;;23.02;36.08;99518.28;5090887;28;20508;-68
2022/08/01 02:25:35;;;;;;;18.70;5.75;;;;;;;23.12;36.30;99521.19;5092090;28;20044;-68
2022/08/01 02:28:08;;;;;;;20.05;5.93;;;;;;;23.18;36.05;99532.94;5090925;28;20131;-68
2022/08/01 02:30:35;;;;;;;29.55;6.45;;;;;;;23.02;36.45;99539.94;5073885;28;20036;-68
2022/08/01 02:33:22;;;;;;;25.42;6.13;;;;;;;23.21;36.16;99538.72;5090563;28;20040;-68
2022/08/01 02:35:54;;;;;;;17.92;5.88;;;;;;;23.16;36.52;99532.34;5057385;28;20044;-69
2022/08/01 02:38:22;;;;;;;19.77;5.85;;;;;;;23.19;36.61;99524.56;5040271;28;20097;-68
2022/08/01 02:40:50;;;;;;;16.38;5.28;;;;;;;23.13;36.54;99517.41;5056638;28;20096;-68
2022/08/01 02:43:20;;;;;;;18.02;5.82;;;;;;;23.17;36.63;99537.53;5090258;28;20047;-69
2022/08/01 02:45:48;;;;;;;20.23;6.10;;;;;;;23.44;35.99;99536.97;5073572;28;20048;-69
2022/08/01 02:48:17;;;;;;;20.77;5.95;;;;;;;24.04;35.19;99544.31;5056467;28;20040;-69
2022/08/01 02:50:45;;;;;;;24.15;5.80;;;;;;;24.62;34.03;99546.53;5089575;28;20040;-69
2022/08/01 02:53:13;;;;;;;21.85;5.88;;;;;;;25.00;33.31;99545.69;5072920;28;20213;-69
2022/08/01 02:55:41;;;;;;;22.25;4.97;;;;;;;25.29;32.41;99528.94;5056093;28;20040;-70
2022/08/01 02:58:11;;;;;;;20.95;5.93;;;;;;;25.66;31.91;99545.38;5072689;28;20501;-69
2022/08/01 03:00:41;;;;;;;23.17;5.60;;;;;;;25.87;31.45;99533.59;5056185;28;20051;-69
2022/08/01 03:03:14;;;;;;;19.23;5.35;;;;;;;26.35;30.74;99550.59;5056687;28;20036;-69
2022/08/01 03:05:41;;;;;;;20.77;5.22;;;;;;;26.40;30.64;99550.63;5089649;28;20052;-69
2022/08/01 03:08:09;;;;;;;22.58;5.13;;;;;;;26.53;30.30;99560.25;5090970;28;20044;-69
2022/08/01 03:10:39;;;;;;;20.58;5.35;;;;;;;26.56;30.18;99542.53;5072498;28;20047;-69
2022/08/01 03:13:09;;;;;;;21.92;5.43;;;;;;;26.76;30.17;99551.69;5073227;28;20044;-69
2022/08/01 03:15:40;;;;;;;28.40;6.00;;;;;;;26.64;29.99;99503.94;5090328;28;20051;-69
2022/08/01 03:18:09;;;;;;;17.00;5.57;;;;;;;27.05;29.69;99552.91;5088650;28;20508;-68
2022/08/01 03:20:40;;;;;;;26.13;5.75;;;;;;;27.02;29.71;99556.19;5073265;28;20735;-69
2022/08/01 03:23:08;;;;;;;29.08;6.35;;;;;;;27.13;29.65;99557.03;5055688;28;20036;-69
2022/08/01 03:25:36;;;;;;;28.80;5.78;;;;;;;27.12;29.56;99558.13;5088833;28;20513;-69
2022/08/01 03:28:13;;;;;;;25.77;6.32;;;;;;;27.16;29.50;99564.69;5073079;28;20048;-69
2022/08/01 03:30:43;;;;;;;26.58;5.35;;;;;;;27.10;29.68;99549.38;5090474;28;20040;-68
2022/08/01 03:33:09;;;;;;;27.60;5.60;;;;;;;27.08;29.78;99549.66;5063428;28;20044;-68
2022/08/01 03:35:51;;;;;;;22.83;5.70;;;;;;;27.28;29.60;99568.03;5070768;28;20101;-68
2022/08/01 03:38:23;;;;;;;21.58;6.93;;;;;;;27.20;29.49;99555.69;5089132;28;20040;-68
2022/08/01 03:40:54;;;;;;;26.98;6.03;;;;;;;27.24;29.85;99562.28;5087956;28;20072;-68
2022/08/01 03:43:38;;;;;;;28.30;5.85;;;;;;;27.20;30.18;99557.63;5070785;28;20071;-69
2022/08/01 03:46:13;;;;;;;31.80;5.65;;;;;;;27.19;29.61;99532.25;5069704;28;20028;-68
2022/08/01 03:48:41;;;;;;;30.60;6.00;;;;;;;27.09;29.48;99531.41;5071952;28;20074;-68
2022/08/01 03:51:12;;;;;;;40.72;6.30;;;;;;;27.10;29.84;99544.75;5091182;28;20040;-69
2022/08/01 03:53:42;;;;;;;36.53;5.93;;;;;;;27.08;29.52;99543.38;5091353;28;20036;-68
2022/08/01 03:56:09;;;;;;;22.70;5.10;;;;;;;27.18;29.40;99549.72;5074893;28;20050;-68
2022/08/01 03:58:39;;;;;;;26.85;5.35;;;;;;;27.25;29.47;99552.16;5074247;28;20044;-68
2022/08/01 04:01:06;;;;;;;30.95;5.05;;;;;;;27.17;29.34;99541.78;5074920;28;20048;-66
2022/08/01 04:03:32;;;;;;;32.67;5.22;;;;;;;26.73;29.83;99524.16;5090996;28;20052;-66
2022/08/01 04:05:58;;;;;;;38.28;5.60;;;;;;;26.65;30.34;99549.19;5091505;28;20047;-67
2022/08/01 04:08:36;;;;;;;30.02;4.75;;;;;;;26.70;30.29;99528.22;5091510;28;20130;-67
2022/08/01 04:11:04;;;;;;;34.80;6.10;;;;;;;26.64;30.48;99551.09;5091376;28;20133;-68
2022/08/01 04:13:31;;;;;;;22.40;4.70;;;;;;;26.95;29.88;99541.16;5090604;28;20173;-67
2022/08/01 04:15:57;;;;;;;23.52;4.95;;;;;;;26.98;29.91;99540.63;5093076;28;20048;-67
2022/08/01 04:18:25;;;;;;;23.40;4.55;;;;;;;27.33;29.90;99543.50;5092474;28;20497;-68
2022/08/01 04:20:50;;;;;;;23.35;4.38;;;;;;;27.34;29.48;99547.88;5093045;28;20158;-68
2022/08/01 04:23:17;;;;;;;19.88;5.32;;;;;;;27.57;29.37;99541.94;5091873;28;20048;-68
2022/08/01 04:25:44;;;;;;;19.52;4.30;;;;;;;27.69;29.37;99543.28;5057624;28;20043;-68
2022/08/01 04:28:16;;;;;;;28.38;5.10;;;;;;;27.90;29.16;99555.09;5091008;28;20073;-68
2022/08/01 04:30:44;;;;;;;26.60;5.43;;;;;;;27.96;29.44;99554.81;5091443;28;20044;-68
2022/08/01 04:33:11;;;;;;;15.68;4.10;;;;;;;28.05;28.78;99535.16;5091782;28;20131;-67
2022/08/01 04:35:40;;;;;;;22.03;4.20;;;;;;;28.24;28.88;99547.16;5074779;28;20075;-68
2022/08/01 04:38:08;;;;;;;25.33;4.00;;;;;;;28.41;28.55;99556.72;5091486;28;20496;-68
2022/08/01 04:40:36;;;;;;;19.67;4.40;;;;;;;28.55;28.42;99552.34;5057598;28;20074;-69
2022/08/01 04:43:03;;;;;;;24.02;3.95;;;;;;;28.60;28.25;99544.09;5091762;28;20272;-69
2022/08/01 04:45:29;;;;;;;21.35;4.43;;;;;;;28.78;28.14;99556.38;5094736;28;20063;-69
2022/08/01 04:47:59;;;;;;;18.45;3.45;;;;;;;29.01;27.62;99558.47;5091782;28;20417;-69
2022/08/01 04:50:25;;;;;;;14.00;4.55;;;;;;;29.03;27.75;99559.81;5057154;28;20048;-69
2022/08/01 04:52:51;;;;;;;22.05;4.00;;;;;;;29.10;27.72;99549.44;5040410;28;20044;-68
2022/08/01 04:55:17;;;;;;;18.38;3.83;;;;;;;29.10;27.59;99554.09;5090719;28;20046;-68
2022/08/01 04:57:45;;;;;;;16.60;3.58;;;;;;;29.34;27.73;99561.34;5091991;28;20113;-68
2022/08/01 05:00:11;;;;;;;14.95;3.55;;;;;;;29.27;27.40;99557.28;5056964;28;20047;-68
2022/08/01 05:02:37;;;;;;;18.85;3.75;;;;;;;29.37;27.36;99574.47;5073197;28;20055;-68
2022/08/01 05:05:05;;;;;;;26.15;3.90;;;;;;;29.58;27.19;99564.25;5073258;28;20123;-68
2022/08/01 05:07:32;;;;;;;22.10;3.70;;;;;;;29.76;27.41;99568.25;5090688;28;20540;-68
2022/08/01 05:09:58;;;;;;;17.33;3.45;;;;;;;29.84;27.01;99568.47;5090741;28;20036;-68
2022/08/01 05:12:24;;;;;;;22.33;4.30;;;;;;;29.90;26.78;99555.56;5072811;28;20058;-68
2022/08/01 05:14:50;;;;;;;31.48;4.45;;;;;;;30.04;26.88;99559.28;5091628;28;20063;-69
2022/08/01 05:17:16;;;;;;;23.52;4.20;;;;;;;30.18;26.62;99579.44;5073151;28;20126;-67
2022/08/01 05:19:42;;;;;;;17.42;3.58;;;;;;;30.17;26.36;99555.88;5090506;28;20205;-68
2022/08/01 05:22:09;;;;;;;18.15;4.00;;;;;;;30.47;26.13;99569.31;5089953;28;20040;-68
2022/08/01 05:24:37;;;;;;;18.23;3.50;;;;;;;30.55;26.19;99560.47;5089652;28;20048;-68
2022/08/01 05:27:03;;;;;;;17.58;4.00;;;;;;;30.60;26.04;99563.97;5073335;28;20075;-68
2022/08/01 05:29:29;;;;;;;17.52;3.53;;;;;;;30.75;25.74;99565.78;5091543;28;20417;-69
2022/08/01 05:31:56;;;;;;;17.33;3.35;;;;;;;30.37;25.78;99564.75;5073462;28;20074;-68
2022/08/01 05:34:22;;;;;;;17.90;2.97;;;;;;;30.62;25.58;99569.16;5073105;28;20036;-67
2022/08/01 05:36:48;;;;;;;16.30;3.05;;;;;;;30.70;25.46;99565.78;5091413;28;20497;-68
2022/08/01 05:39:14;;;;;;;7.70;2.70;;;;;;;30.89;25.10;99572.22;5089506;28;20143;-69
2022/08/01 05:41:42;;;;;;;7.95;2.28;;;;;;;30.87;25.24;99556.03;5091198;28;20046;-69
2022/08/01 05:44:08;;;;;;;4.22;2.50;;;;;;;30.96;25.13;99564.44;5089282;28;20055;-68
2022/08/01 05:46:34;;;;;;;7.68;2.40;;;;;;;30.86;24.85;99559.09;5089500;28;20113;-68
2022/08/01 05:49:00;;;;;;;7.75;2.13;;;;;;;30.90;24.43;99569.19;5073060;28;20493;-68
2022/08/01 05:51:26;;;;;;;10.02;2.00;;;;;;;30.85;24.09;99571.13;5090996;28;20035;-68
2022/08/01 05:53:52;;;;;;;6.38;2.00;;;;;;;30.31;24.91;99562.34;5056218;28;20168;-68
2022/08/01 05:56:19;;;;;;;5.15;2.10;;;;;;;30.30;25.42;99558.81;5056608;28;20050;-68
2022/08/01 05:58:44;;;;;;;7.53;1.80;;;;;;;29.84;25.72;99532.88;5072802;28;20039;-68
2022/08/01 06:01:10;;;;;;;6.60;1.92;;;;;;;29.40;26.61;99562.97;5055850;28;20055;-68
2022/08/01 06:03:36;;;;;;;6.18;1.80;;;;;;;29.47;26.94;99559.91;5055857;28;20056;-67
2022/08/01 06:06:02;;;;;;;3.55;1.60;;;;;;;29.81;26.16;99558.09;5089162;28;20087;-68
2022/08/01 06:08:30;;;;;;;9.50;1.92;;;;;;;29.96;25.37;99565.34;5090107;28;20101;-68
2022/08/01 06:10:56;;;;;;;6.50;1.90;;;;;;;29.51;26.07;99552.78;5089238;28;20040;-68
2022/08/01 06:13:22;;;;;;;14.35;2.00;;;;;;;29.79;26.26;99553.97;5089811;28;20513;-67
2022/08/01 06:15:48;;;;;;;9.05;1.90;;;;;;;30.29;25.80;99564.56;5039578;28;20043;-67
2022/08/01 06:18:14;;;;;;;3.45;1.40;;;;;;;30.80;24.66;99576.69;5073388;28;20044;-67
2022/08/01 06:20:40;;;;;;;3.85;1.60;;;;;;;30.81;24.29;99565.44;5091015;28;20069;-69
2022/08/01 06:23:06;;;;;;;8.15;2.20;;;;;;;30.72;24.19;99571.81;5055584;28;20044;-69
2022/08/01 06:25:33;;;;;;;4.28;1.70;;;;;;;30.87;24.60;99567.03;5072303;28;20048;-68
2022/08/01 06:27:59;;;;;;;3.88;1.80;;;;;;;30.81;24.56;99565.44;5072129;28;20040;-68
2022/08/01 06:30:25;;;;;;;5.30;2.15;;;;;;;31.39;23.86;99566.09;5089187;28;20040;-68
2022/08/01 06:32:51;;;;;;;10.65;2.17;;;;;;;31.91;23.22;99576.06;5039078;28;20093;-68
2022/08/01 06:35:17;;;;;;;5.03;1.85;;;;;;;31.48;23.27;99572.56;5071995;28;20048;-67
2022/08/01 06:37:44;;;;;;;5.50;1.95;;;;;;;30.89;24.06;99578.50;5072444;28;20040;-68
2022/08/01 06:40:11;;;;;;;6.45;3.10;;;;;;;31.40;24.09;99569.69;5071584;28;20048;-68
2022/08/01 06:42:45;;;;;;;3.25;1.80;;;;;;;31.78;23.29;99574.06;5089660;28;20696;-68
2022/08/01 06:45:12;;;;;;;6.07;1.95;;;;;;;32.40;22.60;99573.63;5089654;28;20036;-68
2022/08/01 06:47:39;;;;;;;4.93;2.00;;;;;;;32.66;22.07;99572.84;5071785;28;20105;-68
2022/08/01 06:50:06;;;;;;;6.72;2.58;;;;;;;32.31;22.10;99583.66;5071829;28;20032;-68
2022/08/01 06:52:32;;;;;;;5.30;2.35;;;;;;;31.72;22.53;99565.06;5088448;28;20063;-68
2022/08/01 06:54:59;;;;;;;6.13;2.55;;;;;;;31.57;23.05;99578.22;5088011;28;20093;-68
2022/08/01 06:57:25;;;;;;;5.93;2.75;;;;;;;31.44;23.31;99574.28;5089757;28;20566;-68
2022/08/01 06:59:51;;;;;;;5.72;2.78;;;;;;;31.34;23.15;99568.13;5071859;28;20036;-68
2022/08/01 07:02:17;;;;;;;6.93;2.53;;;;;;;31.69;22.97;99573.88;5088615;28;20043;-69
2022/08/01 07:04:45;;;;;;;8.57;3.20;;;;;;;32.10;22.27;99565.88;5088013;28;20216;-70
2022/08/01 07:07:11;;;;;;;11.38;3.45;;;;;;;32.55;21.73;99582.41;5055172;28;20076;-69
2022/08/01 07:09:40;;;;;;;7.75;2.40;;;;;;;32.93;21.40;99585.03;5070659;28;20075;-70
2022/08/01 07:12:07;;;;;;;6.88;3.10;;;;;;;33.39;20.88;99585.75;5087492;28;20074;-68
2022/08/01 07:14:33;;;;;;;6.38;2.50;;;;;;;33.82;20.36;99581.47;5054625;28;20072;-66
2022/08/01 07:16:59;;;;;;;4.85;2.33;;;;;;;34.22;20.15;99586.03;5088562;28;20082;-70
2022/08/01 07:19:28;;;;;;;9.13;2.65;;;;;;;34.32;19.59;99566.47;5055987;28;20052;-72
2022/08/01 07:21:53;;;;;;;7.03;3.05;;;;;;;34.18;19.94;99579.53;5071885;28;20051;-74
2022/08/01 07:24:19;;;;;;;10.82;3.85;;;;;;;34.97;19.40;99583.22;5053603;28;20534;-70
2022/08/01 07:26:47;;;;;;;12.43;4.25;;;;;;;35.78;18.61;99572.22;5071499;28;20052;-70
2022/08/01 07:29:12;;;;;;;7.88;2.97;;;;;;;36.52;17.43;99552.66;5087935;28;20097;-69
2022/08/01 07:31:38;;;;;;;6.20;3.65;;;;;;;37.53;16.35;99581.03;5054582;28;20048;-69
2022/08/01 07:34:04;;;;;;;10.90;3.20;;;;;;;38.77;15.17;99570.63;5089456;28;20052;-69
2022/08/01 07:36:29;;;;;;;7.13;3.17;;;;;;;39.48;14.80;99582.94;5089457;28;20461;-67
2022/08/01 07:38:55;;;;;;;9.00;3.15;;;;;;;40.18;14.18;99584.28;5088011;28;20040;-67
2022/08/01 07:41:21;;;;;;;5.50;2.70;;;;;;;40.64;13.51;99572.44;5071569;28;20076;-68
2022/08/01 07:43:50;;;;;;;7.25;3.00;;;;;;;41.33;12.78;99592.16;5086505;28;20052;-68
2022/08/01 07:46:16;;;;;;;6.45;2.63;;;;;;;41.90;12.17;99582.28;5033432;28;20036;-68
2022/08/01 07:48:42;;;;;;;7.18;2.30;;;;;;;41.97;11.93;99569.31;5035652;28;20101;-69
2022/08/01 07:51:09;;;;;;;9.07;2.03;;;;;;;42.58;11.01;99588.91;5051539;28;20036;-70
2022/08/01 07:53:36;;;;;;;5.60;1.88;;;;;;;43.01;10.84;99566.91;5085783;28;20040;-69
2022/08/01 07:56:09;;;;;;;7.28;2.92;;;;;;;44.58;10.04;99573.09;5085400;28;20810;-69
2022/08/01 07:58:35;;;;;;;6.25;2.13;;;;;;;45.90;9.45;99570.94;5085630;28;20042;-71
2022/08/01 08:01:01;;;;;;;9.55;2.03;;;;;;;46.63;7.99;99570.38;5086859;28;20127;-70
2022/08/01 08:03:27;;;;;;;4.07;1.75;;;;;;;44.83;8.99;99583.78;5034536;28;20131;-69
2022/08/01 08:05:54;;;;;;;3.75;1.77;;;;;;;44.95;9.33;99573.03;5052019;28;20134;-70
2022/08/01 08:08:23;;;;;;;5.47;2.20;;;;;;;46.18;8.91;99573.84;5068542;28;20132;-70
2022/08/01 08:10:49;;;;;;;8.63;3.45;;;;;;;47.22;8.18;99571.63;5085278;28;20047;-71
2022/08/01 08:13:15;;;;;;;6.07;2.67;;;;;;;47.87;7.69;99565.44;5050768;28;20036;-69
2022/08/01 08:15:41;;;;;;;9.52;1.70;;;;;;;48.39;7.29;99576.50;5052251;28;20047;-67
2022/08/01 08:18:07;;;;;;;4.35;1.55;;;;;;;47.80;7.16;99557.00;5051000;28;20048;-68
2022/08/01 08:20:33;;;;;;;4.43;1.27;;;;;;;47.44;7.40;99573.22;5035299;28;20040;-69
2022/08/01 08:23:00;;;;;;;3.83;1.60;;;;;;;45.92;8.20;99554.47;5033458;28;20563;-69
2022/08/01 08:25:28;;;;;;;3.35;1.30;;;;;;;46.25;7.59;99556.22;5051744;28;20126;-70
2022/08/01 08:27:55;;;;;;;7.38;2.00;;;;;;;47.17;7.45;99558.75;5030730;28;20190;-71
2022/08/01 08:30:22;;;;;;;6.13;2.33;;;;;;;48.91;6.93;99561.22;5086083;28;20448;-70
2022/08/01 08:32:48;;;;;;;8.38;2.40;;;;;;;50.55;6.08;99554.09;5065098;28;20039;-69
2022/08/01 08:35:16;;;;;;;5.40;1.58;;;;;;;50.99;5.58;99550.97;5070453;28;20044;-73
2022/08/01 08:37:45;;;;;;;5.30;1.80;;;;;;;51.13;5.44;99553.56;5052935;28;20044;-71
2022/08/01 08:40:11;;;;;;;7.90;1.40;;;;;;;50.72;5.67;99538.88;5041658;28;20048;-70
2022/08/01 08:42:39;;;;;;;2.35;1.40;;;;;;;49.47;6.13;99542.19;5038809;28;20102;-69
2022/08/01 08:45:06;;;;;;;3.53;1.73;;;;;;;49.42;6.53;99551.91;5071356;28;20040;-70
2022/08/01 08:47:33;;;;;;;3.83;1.13;;;;;;;49.28;6.17;99545.56;5088947;28;20048;-69
2022/08/01 08:50:03;;;;;;;6.57;2.95;;;;;;;48.79;6.44;99538.38;5089012;28;20579;-67
2022/08/01 08:52:30;;;;;;;4.55;1.95;;;;;;;49.79;6.17;99534.16;5039697;28;20036;-68
2022/08/01 08:54:55;;;;;;;4.40;1.45;;;;;;;50.14;6.19;99531.69;5071702;28;20040;-69
2022/08/01 08:57:21;;;;;;;5.47;1.30;;;;;;;51.66;5.29;99546.91;5087895;28;20039;-70
2022/08/01 08:59:47;;;;;;;8.55;1.33;;;;;;;52.94;4.47;99540.75;5055388;28;20118;-70
2022/08/01 09:02:13;;;;;;;5.72;1.92;;;;;;;53.74;4.23;99540.59;5052115;28;20251;-71
2022/08/01 09:04:40;;;;;;;11.32;2.97;;;;;;;55.04;3.67;99541.34;5071235;28;20044;-70
2022/08/01 09:07:14;;;;;;;4.07;1.60;;;;;;;55.44;3.34;99534.59;5070810;28;20094;-70
2022/08/01 09:09:39;;;;;;;7.75;1.90;;;;;;;56.29;2.85;99529.28;5087807;28;20040;-69
2022/08/01 09:12:05;;;;;;;3.17;1.60;;;;;;;57.14;2.42;99529.41;5072755;28;20040;-70
2022/08/01 09:14:35;;;;;;;4.10;1.27;;;;;;;57.41;1.89;99521.63;5091306;28;20056;-69
2022/08/01 09:17:02;;;;;;;3.28;1.15;;;;;;;56.45;2.42;99523.38;5090081;28;20082;-68
2022/08/01 09:19:35;;;;;;;3.08;1.20;;;;;;;53.20;3.51;99499.91;5089530;28;20079;-69
2022/08/01 09:22:04;;;;;;;4.50;1.50;;;;;;;51.95;4.29;99505.38;5072268;28;20036;-69
2022/08/01 09:24:31;;;;;;;6.53;1.60;;;;;;;52.05;4.25;99500.75;5088502;28;20043;-69
2022/08/01 09:26:58;;;;;;;5.40;1.42;;;;;;;53.23;4.03;99504.69;5088921;28;20745;-70
2022/08/01 09:29:29;;;;;;;3.33;1.00;;;;;;;53.63;3.03;99519.41;5086258;28;20036;-71
2022/08/01 09:31:56;;;;;;;3.97;1.13;;;;;;;53.04;3.57;99494.28;5072376;28;20210;-71
2022/08/01 09:34:27;;;;;;;2.78;0.93;;;;;;;52.66;3.71;99508.22;5049969;28;20544;-71
2022/08/01 09:36:55;;;;;;;1.42;1.00;;;;;;;52.16;3.61;99498.47;5089412;28;20497;-74
2022/08/01 09:39:25;;;;;;;2.88;1.30;;;;;;;53.31;3.27;99501.25;5069603;28;20044;-70
2022/08/01 09:41:52;;;;;;;3.50;1.33;;;;;;;54.66;2.89;99501.53;5086541;28;20392;-70
2022/08/01 09:44:18;;;;;;;3.85;1.35;;;;;;;56.00;2.59;99492.56;5038366;28;20035;-70
2022/08/01 09:46:54;;;;;;;2.75;1.20;;;;;;;57.14;2.05;99493.06;5070563;28;20052;-71
2022/08/01 09:49:31;;;;;;;7.60;1.60;;;;;;;58.09;1.77;99497.19;5054798;28;20032;-73
2022/08/01 09:52:09;;;;;;;3.80;1.20;;;;;;;58.67;1.42;99500.41;5072534;28;20126;-71
2022/08/01 09:54:35;;;;;;;3.67;1.48;;;;;;;58.74;1.57;99500.09;5089755;28;20051;-70
2022/08/01 09:57:17;;;;;;;3.92;1.25;;;;;;;58.18;1.59;99499.28;5091257;28;20505;-70
2022/08/01 09:59:47;;;;;;;3.08;1.10;;;;;;;56.19;2.18;99482.81;5072574;28;20275;-73
2022/08/01 10:02:15;;;;;;;4.25;0.90;;;;;;;53.62;2.99;99481.69;5090508;28;20055;-70
2022/08/01 10:04:48;;;;;;;4.38;1.10;;;;;;;51.60;4.21;99474.97;5069017;28;20045;-69
2022/08/01 10:07:16;;;;;;;3.28;1.20;;;;;;;49.83;4.85;99469.91;5068827;28;20399;-70
2022/08/01 10:09:42;;;;;;;3.90;1.10;;;;;;;46.73;5.85;99443.06;5068961;28;20044;-69
2022/08/01 10:12:09;;;;;;;2.70;1.40;;;;;;;44.45;7.43;99462.50;5051648;28;20072;-69
2022/08/01 10:14:37;;;;;;;2.92;1.25;;;;;;;43.81;8.65;99459.41;5035683;28;20497;-70
2022/08/01 10:17:04;;;;;;;4.22;1.52;;;;;;;43.32;8.76;99462.34;5052045;28;20075;-70
2022/08/01 10:19:32;;;;;;;6.78;1.90;;;;;;;43.02;9.13;99459.53;5068725;28;20044;-70
2022/08/01 10:21:58;;;;;;;3.38;1.38;;;;;;;42.75;9.40;99457.13;5068699;28;20048;-69
2022/08/01 10:24:27;;;;;;;8.05;1.90;;;;;;;42.74;9.69;99452.69;5068715;28;20516;-70
2022/08/01 10:26:59;;;;;;;2.28;1.50;;;;;;;42.78;9.60;99451.56;5069459;28;20068;-70
2022/08/01 10:29:25;;;;;;;4.90;1.70;;;;;;;42.44;9.58;99452.56;5068070;28;20045;-69
2022/08/01 10:31:51;;;;;;;2.78;1.60;;;;;;;41.47;10.36;99455.81;5053362;28;20040;-69
2022/08/01 10:34:19;;;;;;;3.20;1.65;;;;;;;40.89;10.99;99465.25;5088462;28;20040;-68
2022/08/01 10:36:48;;;;;;;4.47;1.63;;;;;;;40.97;10.71;99469.81;5072077;28;20416;-69
2022/08/01 10:39:14;;;;;;;3.53;1.45;;;;;;;40.99;11.05;99470.28;5054842;28;20155;-71
2022/08/01 10:41:41;;;;;;;3.50;1.50;;;;;;;42.81;9.61;99452.81;5072043;28;20131;-70
2022/08/01 10:44:07;;;;;;;2.20;1.58;;;;;;;45.02;8.20;99454.56;5071410;28;20048;-68
2022/08/01 10:46:39;;;;;;;4.47;1.50;;;;;;;46.25;7.29;99464.31;5089660;28;20052;-68
2022/08/01 10:49:11;;;;;;;5.32;1.50;;;;;;;48.21;6.29;99465.84;5089315;28;20109;-70
2022/08/01 10:51:38;;;;;;;5.75;1.60;;;;;;;48.86;6.14;99470.59;5088338;28;20044;-68
2022/08/01 10:54:09;;;;;;;7.43;2.15;;;;;;;49.88;5.18;99473.09;5088131;28;20055;-69
2022/08/01 10:56:56;;;;;;;7.70;1.52;;;;;;;49.12;5.63;99469.94;5071425;28;20079;-69
2022/08/01 10:59:24;;;;;;;3.97;1.30;;;;;;;47.54;6.55;99468.22;5071581;28;20056;-69
2022/08/01 11:01:58;;;;;;;1.83;1.30;;;;;;;46.47;6.99;99457.53;5071839;28;20527;-70
2022/08/01 11:04:33;;;;;;;6.00;1.50;;;;;;;46.75;6.57;99460.31;5071525;28;20143;-69
2022/08/01 11:07:04;;;;;;;9.00;1.63;;;;;;;47.06;6.42;99447.44;5071709;28;20048;-69
2022/08/01 11:09:38;;;;;;;3.03;1.40;;;;;;;48.47;5.64;99456.03;5087070;28;20042;-70
2022/08/01 11:12:15;;;;;;;2.25;1.30;;;;;;;47.80;6.33;99452.81;5070413;28;20071;-69
2022/08/01 11:14:59;;;;;;;6.00;1.50;;;;;;;46.89;6.41;99446.28;5088006;28;20044;-68
2022/08/01 11:17:32;;;;;;;4.13;1.58;;;;;;;46.95;6.69;99443.88;5089061;28;20055;-69
2022/08/01 11:20:11;;;;;;;4.93;2.35;;;;;;;47.21;6.71;99435.78;5054217;28;20035;-69
2022/08/01 11:23:01;;;;;;;7.15;1.40;;;;;;;46.07;7.24;99433.34;5087817;28;20142;-69
2022/08/01 11:25:36;;;;;;;2.85;1.50;;;;;;;45.43;7.26;99427.94;5087615;28;20102;-69
2022/08/01 11:28:25;;;;;;;3.22;1.77;;;;;;;44.66;8.09;99428.25;5086308;28;20039;-69
2022/08/01 11:31:16;;;;;;;3.92;1.50;;;;;;;44.09;8.26;99423.31;5067167;28;20140;-68
2022/08/01 11:33:42;;;;;;;3.10;1.45;;;;;;;43.60;8.42;99423.56;5083440;28;20548;-69
2022/08/01 11:36:26;;;;;;;6.30;1.48;;;;;;;43.37;8.64;99417.28;5086571;28;20035;-70
2022/08/01 11:39:04;;;;;;;4.03;1.70;;;;;;;42.76;9.04;99419.59;5086422;28;20107;-70